CheckWX is a tool to help pilots better visualize weather data.  It is not intended as a substitute for an official pre-flight weather briefing.

17:59:44 UTC

KLWD METAR
Lamoni Municipal Airport
Lamoni, Iowa, USA
Current

15 mins ago

KLWD 171745Z AUTO 28005KT 2 1/2SM -SN BR OVC016 M02/M04 A2981 RMK AO2 P0000 T10221044 $
Observed
Feb-17 @ 17:45 UTC
Wind
  • 280° at 5 KTS
Visibility
2 1/2 SM
Flight Rules
IFR
Conditions
Light Snow, Mist
Cloud Levels
  • Overcast at 1,600' AGL
Temperature
-2°C / 28°F
Dewpoint
-4°C / 25°F
Humidity
86%
Altimeter
29.81" Hg
Pressure
1009.52 hPa
Current Rain
0.01"
Previous

38 mins ago

KLWD 171722Z AUTO 28003KT 3SM -SN BR FEW009 BKN018 OVC035 M02/M04 A2980 RMK AO2 P0000 T10171039 $
Observed
Feb-17 @ 17:22 UTC
Wind
  • 280° at 3 KTS
Visibility
3 SM
Flight Rules
MVFR
Conditions
Light Snow, Mist
Cloud Levels
  • Few at 900' AGL
  • Broken at 1,800' AGL
  • Overcast at 3,500' AGL
Temperature
-2°C / 28°F
Dewpoint
-4°C / 25°F
Humidity
86%
Altimeter
29.8" Hg
Pressure
1009.12 hPa
Current Rain
0.01"
Previous

1 hour ago

KLWD 171653Z AUTO 00000KT 3SM -SN FEW007 BKN010 OVC022 M01/M04 A2979 RMK AO2 SLP102 P0000 T10111039 $
Observed
Feb-17 @ 16:53 UTC
Visibility
3 SM
Flight Rules
MVFR
Conditions
Light Snow
Cloud Levels
  • Few at 700' AGL
  • Broken at 1,000' AGL
  • Overcast at 2,200' AGL
Temperature
-1°C / 30°F
Dewpoint
-4°C / 25°F
Humidity
80%
Altimeter
29.79" Hg
Pressure
1010.2 hPa
Current Rain
0.01"